createdAt,value
2023-02-09T00:01:31.910Z,-1.30
2023-02-09T00:04:00.968Z,-1.28
2023-02-09T00:06:33.322Z,-1.49
2023-02-09T00:09:01.051Z,-1.73
2023-02-09T00:11:49.957Z,-1.67
2023-02-09T00:14:22.169Z,-1.85
2023-02-09T00:16:51.256Z,-1.89
2023-02-09T00:19:20.658Z,-1.72
2023-02-09T00:21:49.144Z,-1.63
2023-02-09T00:24:17.049Z,-1.75
2023-02-09T00:26:44.702Z,-1.85
2023-02-09T00:29:12.862Z,-1.75
2023-02-09T00:31:40.654Z,-1.65
2023-02-09T00:34:08.554Z,-1.83
2023-02-09T00:36:36.247Z,-1.67
2023-02-09T00:39:03.852Z,-1.87
2023-02-09T00:41:50.151Z,-2.02
2023-02-09T00:44:20.659Z,-2.01
2023-02-09T00:46:49.305Z,-2.09
2023-02-09T00:49:16.990Z,-2.24
2023-02-09T00:51:44.735Z,-2.38
2023-02-09T00:54:13.517Z,-2.24
2023-02-09T00:56:41.055Z,-2.39
2023-02-09T00:59:08.568Z,-2.48
2023-02-09T01:01:36.615Z,-2.57
2023-02-09T01:04:04.944Z,-2.52
2023-02-09T01:06:32.923Z,-2.24
2023-02-09T01:09:01.331Z,-2.28
2023-02-09T01:11:29.931Z,-2.35
2023-02-09T01:14:00.444Z,-2.45
2023-02-09T01:16:31.757Z,-2.56
2023-02-09T01:19:01.872Z,-2.61
2023-02-09T01:21:30.647Z,-2.47
2023-02-09T01:24:01.259Z,-2.67
2023-02-09T01:26:28.909Z,-2.68
2023-02-09T01:28:56.452Z,-2.83
2023-02-09T01:31:33.922Z,-2.87
2023-02-09T01:34:04.877Z,-2.90
2023-02-09T01:36:34.021Z,-2.91
2023-02-09T01:39:03.981Z,-2.98
2023-02-09T01:41:32.908Z,-2.97
2023-02-09T01:44:11.045Z,-2.63
2023-02-09T01:46:40.049Z,-2.62
2023-02-09T01:49:10.540Z,-2.89
2023-02-09T01:51:46.875Z,-2.86
2023-02-09T01:54:25.673Z,-2.86
2023-02-09T01:57:10.462Z,-3.04
2023-02-09T01:59:42.009Z,-3.03
2023-02-09T02:02:10.679Z,-3.12
2023-02-09T02:04:39.612Z,-3.30
2023-02-09T02:07:33.421Z,-3.25
2023-02-09T02:10:03.058Z,-3.05
2023-02-09T02:12:32.616Z,-3.00
2023-02-09T02:15:00.245Z,-3.00
2023-02-09T02:17:55.454Z,-3.10
2023-02-09T02:21:04.534Z,-3.19
2023-02-09T02:23:58.129Z,-3.31
2023-02-09T02:26:40.506Z,-3.27
2023-02-09T02:30:03.015Z,-3.32
2023-02-09T02:32:45.354Z,-3.20
2023-02-09T02:35:31.017Z,-3.38
2023-02-09T02:38:17.180Z,-3.08
2023-02-09T02:41:10.779Z,-3.18
2023-02-09T02:43:53.268Z,-2.89
2023-02-09T02:46:36.034Z,-3.19
2023-02-09T02:49:18.136Z,-3.33
2023-02-09T02:51:49.348Z,-3.26
2023-02-09T02:54:45.039Z,-3.30
2023-02-09T02:57:21.254Z,-3.14
2023-02-09T03:00:23.656Z,-3.16
2023-02-09T03:02:55.822Z,-3.36
2023-02-09T03:05:25.698Z,-3.61
2023-02-09T03:07:53.284Z,-3.80
2023-02-09T03:10:35.831Z,-3.58
2023-02-09T03:13:26.971Z,-3.53
2023-02-09T03:16:48.055Z,-3.48
2023-02-09T03:19:58.492Z,-3.52
2023-02-09T03:22:37.118Z,-3.27
2023-02-09T03:25:34.216Z,-3.55
2023-02-09T03:28:17.223Z,-3.66
2023-02-09T03:30:50.171Z,-3.50
2023-02-09T03:33:25.245Z,-3.33
2023-02-09T03:35:58.765Z,-3.71
2023-02-09T03:38:27.164Z,-3.82
2023-02-09T03:40:55.408Z,-3.94
2023-02-09T03:43:42.885Z,-4.03
2023-02-09T03:46:10.552Z,-3.99
2023-02-09T03:48:38.979Z,-4.04
2023-02-09T03:51:07.101Z,-3.90
2023-02-09T03:53:37.242Z,-3.94
2023-02-09T03:56:07.910Z,-3.98
2023-02-09T03:58:36.331Z,-3.83
2023-02-09T04:01:09.935Z,-3.69
2023-02-09T04:03:39.915Z,-3.78
2023-02-09T04:06:10.728Z,-3.84
2023-02-09T04:08:38.388Z,-3.97
2023-02-09T04:11:06.044Z,-3.97
2023-02-09T04:13:33.504Z,-4.04
2023-02-09T04:16:01.236Z,-4.07
2023-02-09T04:18:28.727Z,-4.14
2023-02-09T04:20:56.190Z,-3.96
2023-02-09T04:23:23.659Z,-4.04
2023-02-09T04:25:51.178Z,-4.04
2023-02-09T04:28:21.682Z,-3.82
2023-02-09T04:30:54.391Z,-3.97
2023-02-09T04:33:24.049Z,-3.98
2023-02-09T04:35:52.964Z,-3.92
2023-02-09T04:38:22.027Z,-3.92
2023-02-09T04:40:52.190Z,-3.87
2023-02-09T04:43:20.024Z,-3.89
2023-02-09T04:45:48.780Z,-3.89
2023-02-09T04:48:21.267Z,-3.83
2023-02-09T04:50:49.598Z,-3.90
2023-02-09T04:53:17.865Z,-3.96
2023-02-09T04:55:47.421Z,-3.91
2023-02-09T04:58:38.288Z,-3.93
2023-02-09T05:01:06.844Z,-3.92
2023-02-09T05:03:34.628Z,-3.96
2023-02-09T05:06:05.495Z,-3.73
2023-02-09T05:08:33.528Z,-3.75
2023-02-09T05:11:01.381Z,-3.86
2023-02-09T05:13:29.801Z,-3.66
2023-02-09T05:15:57.629Z,-3.48
2023-02-09T05:18:26.307Z,-3.73
2023-02-09T05:20:53.776Z,-3.76
2023-02-09T05:23:21.521Z,-3.63
2023-02-09T05:25:49.016Z,-3.95
2023-02-09T05:28:16.793Z,-4.22
2023-02-09T05:30:44.883Z,-4.01
2023-02-09T05:33:12.587Z,-3.98
2023-02-09T05:35:40.227Z,-4.03
2023-02-09T05:38:07.771Z,-4.45
2023-02-09T05:40:35.354Z,-4.55
2023-02-09T05:43:03.481Z,-4.57
2023-02-09T05:45:31.003Z,-4.67
2023-02-09T05:47:58.471Z,-4.61
2023-02-09T05:50:26.042Z,-4.72
2023-02-09T05:52:58.281Z,-4.47
2023-02-09T05:55:25.979Z,-4.42
2023-02-09T05:57:53.455Z,-4.26
2023-02-09T06:00:21.617Z,-4.36
2023-02-09T06:02:51.607Z,-4.22
2023-02-09T06:05:20.993Z,-3.83
2023-02-09T06:07:49.509Z,-3.74
2023-02-09T06:10:20.238Z,-4.00
2023-02-09T06:12:48.077Z,-4.08
2023-02-09T06:15:18.678Z,-4.28
2023-02-09T06:17:46.452Z,-4.19
2023-02-09T06:20:14.009Z,-4.06
2023-02-09T06:22:41.530Z,-4.00
2023-02-09T06:25:09.388Z,-3.97
2023-02-09T06:27:36.974Z,-3.74
2023-02-09T06:30:06.065Z,-3.65
2023-02-09T06:32:33.518Z,-3.69
2023-02-09T06:35:01.016Z,-3.67
2023-02-09T06:37:28.445Z,-3.41
2023-02-09T06:39:55.954Z,-3.36
2023-02-09T06:42:23.819Z,-3.33
2023-02-09T06:44:51.355Z,-3.00
2023-02-09T06:47:18.792Z,-3.08
2023-02-09T06:49:46.301Z,-2.44
2023-02-09T06:52:13.892Z,-2.19
2023-02-09T06:54:41.387Z,-2.19
2023-02-09T06:57:08.932Z,-1.96
2023-02-09T06:59:36.434Z,-1.67
2023-02-09T07:02:03.938Z,-1.92
2023-02-09T07:04:31.440Z,-1.89
2023-02-09T07:06:58.905Z,-1.57
2023-02-09T07:09:27.023Z,-1.45
2023-02-09T07:11:54.579Z,-1.37
2023-02-09T07:14:22.021Z,-1.48
2023-02-09T07:16:49.490Z,-1.30
2023-02-09T07:19:17.024Z,-1.21
2023-02-09T07:21:44.494Z,-0.97
2023-02-09T07:24:12.454Z,-1.20
2023-02-09T07:26:40.001Z,-1.29
2023-02-09T07:29:07.437Z,-1.01
2023-02-09T07:31:34.993Z,-1.04
2023-02-09T07:34:02.619Z,-0.63
2023-02-09T07:36:30.103Z,-0.83
2023-02-09T07:38:58.834Z,-0.75
2023-02-09T07:41:27.868Z,-0.53
2023-02-09T07:43:56.909Z,-0.15
2023-02-09T07:46:25.714Z,-0.06
2023-02-09T07:48:53.243Z,0.22
2023-02-09T07:51:25.415Z,0.40
2023-02-09T07:53:58.359Z,0.01
2023-02-09T07:56:27.727Z,0.63
2023-02-09T07:58:56.173Z,0.31
2023-02-09T08:01:25.644Z,0.48
2023-02-09T08:03:56.531Z,0.42
2023-02-09T08:06:45.954Z,0.49
2023-02-09T08:09:16.982Z,0.68
2023-02-09T08:12:06.048Z,0.65
2023-02-09T08:14:48.199Z,1.03
2023-02-09T08:17:27.942Z,1.29
2023-02-09T08:20:11.682Z,1.33
2023-02-09T08:22:46.627Z,1.45
2023-02-09T08:25:18.581Z,1.55
2023-02-09T08:27:47.759Z,1.81
2023-02-09T08:30:17.199Z,1.52
2023-02-09T08:32:46.065Z,1.68
2023-02-09T08:35:13.591Z,2.07
2023-02-09T08:37:41.120Z,1.98
2023-02-09T08:40:09.502Z,2.49
2023-02-09T08:42:36.980Z,2.47
2023-02-09T08:45:04.663Z,2.33
2023-02-09T08:47:32.118Z,2.05
2023-02-09T08:49:59.680Z,2.37
2023-02-09T08:52:27.288Z,2.29
2023-02-09T08:54:54.847Z,2.25
2023-02-09T08:57:24.208Z,2.62
2023-02-09T08:59:55.026Z,2.74
2023-02-09T09:02:22.666Z,2.71
2023-02-09T09:04:50.156Z,2.84
2023-02-09T09:07:17.639Z,3.07
2023-02-09T09:09:45.066Z,3.38
2023-02-09T09:12:12.594Z,2.94
2023-02-09T09:14:40.547Z,2.85
2023-02-09T09:17:08.046Z,3.26
2023-02-09T09:19:35.593Z,3.42
2023-02-09T09:22:03.730Z,3.49
2023-02-09T09:24:32.169Z,3.54
2023-02-09T09:26:59.649Z,3.82
2023-02-09T09:29:29.008Z,4.02
2023-02-09T09:31:56.969Z,3.98
2023-02-09T09:34:24.445Z,4.32
2023-02-09T09:36:52.094Z,4.15
2023-02-09T09:39:20.052Z,4.28
2023-02-09T09:41:52.376Z,4.78
2023-02-09T09:44:33.784Z,4.82
2023-02-09T09:47:08.917Z,5.05
2023-02-09T09:49:38.449Z,5.08
2023-02-09T09:52:24.810Z,5.13
2023-02-09T09:54:52.878Z,5.31
2023-02-09T09:57:25.638Z,5.38
2023-02-09T09:59:54.147Z,5.33
2023-02-09T10:02:32.594Z,5.23
2023-02-09T10:05:20.512Z,5.62
2023-02-09T10:08:05.631Z,6.00
2023-02-09T10:10:56.336Z,5.99
2023-02-09T10:13:37.574Z,6.15
2023-02-09T10:16:29.165Z,6.09
2023-02-09T10:19:03.505Z,6.55
2023-02-09T10:21:36.226Z,6.15
2023-02-09T10:24:09.300Z,6.18
2023-02-09T10:26:40.293Z,6.11
2023-02-09T10:29:13.862Z,6.20
2023-02-09T10:31:47.920Z,6.14
2023-02-09T10:34:24.412Z,5.77
2023-02-09T10:37:19.825Z,5.74
2023-02-09T10:40:01.627Z,5.73
2023-02-09T10:42:37.690Z,6.07
2023-02-09T10:45:21.002Z,6.14
2023-02-09T10:48:02.512Z,5.97
2023-02-09T10:50:32.320Z,6.00
2023-02-09T10:53:03.568Z,5.48
2023-02-09T10:55:41.654Z,5.73
2023-02-09T10:58:24.954Z,6.27
2023-02-09T11:01:24.787Z,6.32
2023-02-09T11:04:06.693Z,6.45
2023-02-09T11:06:56.641Z,6.62
2023-02-09T11:09:42.848Z,6.48
2023-02-09T11:12:13.114Z,6.89
2023-02-09T11:14:44.580Z,7.36
2023-02-09T11:17:31.625Z,6.95
2023-02-09T11:20:26.719Z,7.34
2023-02-09T11:23:24.983Z,7.66
2023-02-09T11:26:28.361Z,7.46
2023-02-09T11:29:14.249Z,7.45
2023-02-09T11:32:12.793Z,7.45
2023-02-09T11:35:05.046Z,7.95
2023-02-09T11:38:01.716Z,8.08
2023-02-09T11:40:54.057Z,8.42
2023-02-09T11:43:38.071Z,8.88
2023-02-09T11:46:18.993Z,9.37
2023-02-09T11:48:57.599Z,9.78
2023-02-09T11:51:26.953Z,9.35
2023-02-09T11:54:22.561Z,8.53
2023-02-09T11:57:03.271Z,8.84
2023-02-09T11:59:38.763Z,9.21
2023-02-09T12:02:38.741Z,9.96
2023-02-09T12:05:11.347Z,10.22
2023-02-09T12:07:51.965Z,10.01
2023-02-09T12:10:43.391Z,10.08
2023-02-09T12:13:28.810Z,9.98
2023-02-09T12:16:08.834Z,10.53
2023-02-09T12:18:37.547Z,11.34
2023-02-09T12:21:07.101Z,11.39
2023-02-09T12:23:35.244Z,10.59
2023-02-09T12:26:15.538Z,10.32
2023-02-09T12:28:54.566Z,10.56
2023-02-09T12:31:26.444Z,10.49
2023-02-09T12:33:59.804Z,10.01
2023-02-09T12:36:37.715Z,10.17
2023-02-09T12:39:26.678Z,10.52
2023-02-09T12:41:56.585Z,11.01
2023-02-09T12:44:26.805Z,10.68
2023-02-09T12:46:57.952Z,10.93
2023-02-09T12:49:28.217Z,10.64
2023-02-09T12:52:15.157Z,11.07
2023-02-09T12:54:56.688Z,11.73
2023-02-09T12:57:25.467Z,11.64
2023-02-09T12:59:52.846Z,11.75
2023-02-09T13:02:24.171Z,11.96
2023-02-09T13:04:59.908Z,12.26
2023-02-09T13:08:02.253Z,12.39
2023-02-09T13:10:41.587Z,12.85
2023-02-09T13:13:13.474Z,13.32
2023-02-09T13:16:04.765Z,13.55
2023-02-09T13:19:02.910Z,13.67
2023-02-09T13:21:52.399Z,13.13
2023-02-09T13:24:37.187Z,12.46
2023-02-09T13:27:20.396Z,12.66
2023-02-09T13:30:00.640Z,13.70
2023-02-09T13:32:36.176Z,14.37
2023-02-09T13:35:20.504Z,14.47
2023-02-09T13:37:56.608Z,14.98
2023-02-09T13:40:28.854Z,15.51
2023-02-09T13:43:20.250Z,15.49
2023-02-09T13:45:54.848Z,15.10
2023-02-09T13:48:29.248Z,14.61
2023-02-09T13:51:02.568Z,14.17
2023-02-09T13:53:31.897Z,14.69
2023-02-09T13:56:03.477Z,14.84
2023-02-09T13:58:38.455Z,15.17
2023-02-09T14:01:16.905Z,15.15
2023-02-09T14:03:58.821Z,15.66
2023-02-09T14:06:47.059Z,16.04
2023-02-09T14:09:30.071Z,16.75
2023-02-09T14:12:09.646Z,17.24
2023-02-09T14:15:06.422Z,16.82
2023-02-09T14:17:35.743Z,16.59
2023-02-09T14:20:04.706Z,16.27
2023-02-09T14:22:37.394Z,15.52
2023-02-09T14:25:18.354Z,14.98
2023-02-09T14:27:49.131Z,14.73
2023-02-09T14:30:29.628Z,15.21
2023-02-09T14:33:00.866Z,15.25
2023-02-09T14:35:30.860Z,15.24
2023-02-09T14:38:01.740Z,14.74
2023-02-09T14:40:31.732Z,14.81
2023-02-09T14:43:14.904Z,15.00
2023-02-09T14:45:46.460Z,15.01
2023-02-09T14:48:26.287Z,15.47
2023-02-09T14:51:01.628Z,15.68
2023-02-09T14:53:32.489Z,15.38
2023-02-09T14:56:00.252Z,15.38
2023-02-09T14:58:31.142Z,15.51
2023-02-09T15:01:02.452Z,15.16
2023-02-09T15:03:30.188Z,14.65
2023-02-09T15:06:01.891Z,14.32
2023-02-09T15:08:33.894Z,13.80
2023-02-09T15:11:24.698Z,13.11
2023-02-09T15:13:57.885Z,12.92
2023-02-09T15:16:25.621Z,12.59
2023-02-09T15:18:53.115Z,12.12
2023-02-09T15:21:20.659Z,11.33
2023-02-09T15:23:48.965Z,10.35
2023-02-09T15:26:20.628Z,9.39
2023-02-09T15:28:49.675Z,8.88
2023-02-09T15:31:19.641Z,8.28
2023-02-09T15:33:49.423Z,7.94
2023-02-09T15:36:21.638Z,7.68
2023-02-09T15:38:51.199Z,7.58
2023-02-09T15:41:37.260Z,7.42
2023-02-09T15:44:39.651Z,7.03
2023-02-09T15:47:28.543Z,6.61
2023-02-09T15:50:01.739Z,6.38
2023-02-09T15:52:30.683Z,6.03
2023-02-09T15:55:02.529Z,5.72
2023-02-09T15:57:31.123Z,5.36
2023-02-09T15:59:59.202Z,5.14
2023-02-09T16:02:28.174Z,5.03
2023-02-09T16:04:56.584Z,5.04
2023-02-09T16:07:26.826Z,4.92
2023-02-09T16:09:54.437Z,4.82
2023-02-09T16:12:21.945Z,4.75
2023-02-09T16:14:51.705Z,4.92
2023-02-09T16:17:20.336Z,4.90
2023-02-09T16:19:49.188Z,4.96
2023-02-09T16:22:22.704Z,4.78
2023-02-09T16:24:50.339Z,4.68
2023-02-09T16:27:26.518Z,4.77
2023-02-09T16:29:54.879Z,4.84
2023-02-09T16:32:24.672Z,4.97
2023-02-09T16:35:04.570Z,4.74
2023-02-09T16:37:39.043Z,4.57
2023-02-09T16:40:21.226Z,4.77
2023-02-09T16:42:48.841Z,4.62
2023-02-09T16:45:18.601Z,4.62
2023-02-09T16:47:53.005Z,4.48
2023-02-09T16:50:40.419Z,4.25
2023-02-09T16:53:18.850Z,3.95
2023-02-09T16:55:49.284Z,3.93
2023-02-09T16:58:20.316Z,3.91
2023-02-09T17:00:51.106Z,3.80
2023-02-09T17:03:39.683Z,3.63
2023-02-09T17:06:15.760Z,3.54
2023-02-09T17:08:43.544Z,3.43
2023-02-09T17:11:18.595Z,3.23
2023-02-09T17:13:46.254Z,3.10
2023-02-09T17:16:24.735Z,3.21
2023-02-09T17:18:56.852Z,3.11
2023-02-09T17:21:36.396Z,3.11
2023-02-09T17:24:05.279Z,3.00
2023-02-09T17:26:33.204Z,2.94
2023-02-09T17:29:02.083Z,2.74
2023-02-09T17:31:47.093Z,2.73
2023-02-09T17:34:27.504Z,2.65
2023-02-09T17:36:57.014Z,2.56
2023-02-09T17:39:25.205Z,2.57
2023-02-09T17:41:53.073Z,2.48
2023-02-09T17:44:45.155Z,2.40
2023-02-09T17:47:21.274Z,2.26
2023-02-09T17:49:49.378Z,2.07
2023-02-09T17:52:21.502Z,1.90
2023-02-09T17:54:51.068Z,1.72
2023-02-09T17:57:21.038Z,1.63
2023-02-09T17:59:50.379Z,1.37
2023-02-09T18:02:23.685Z,1.29
2023-02-09T18:04:51.197Z,1.22
2023-02-09T18:07:21.858Z,1.24
2023-02-09T18:09:49.702Z,1.25
2023-02-09T18:12:28.781Z,1.18
2023-02-09T18:14:56.548Z,1.14
2023-02-09T18:17:25.846Z,0.93
2023-02-09T18:19:53.392Z,1.38
2023-02-09T18:22:22.923Z,1.16
2023-02-09T18:24:52.253Z,1.21
2023-02-09T18:27:21.162Z,0.96
2023-02-09T18:29:48.644Z,0.53
2023-02-09T18:32:18.117Z,0.58
2023-02-09T18:34:46.205Z,0.41
2023-02-09T18:37:15.891Z,0.29
2023-02-09T18:39:46.545Z,0.39
2023-02-09T18:42:16.819Z,0.36
2023-02-09T18:44:44.952Z,0.42
2023-02-09T18:47:13.794Z,0.59
2023-02-09T18:49:42.985Z,0.60
2023-02-09T18:52:15.344Z,0.64
2023-02-09T18:54:43.339Z,0.63
2023-02-09T18:57:12.057Z,0.63
2023-02-09T18:59:40.867Z,0.56
2023-02-09T19:02:14.568Z,0.59
2023-02-09T19:04:43.829Z,0.74
2023-02-09T19:07:12.477Z,0.75
2023-02-09T19:09:42.910Z,0.77
2023-02-09T19:12:10.894Z,0.64
2023-02-09T19:14:42.592Z,0.37
2023-02-09T19:17:16.005Z,0.27
2023-02-09T19:19:44.705Z,0.49
2023-02-09T19:22:18.182Z,0.48
2023-02-09T19:24:51.406Z,0.49
2023-02-09T19:27:27.410Z,0.61
2023-02-09T19:30:00.946Z,0.59
2023-02-09T19:32:28.507Z,0.73
2023-02-09T19:34:56.085Z,0.60
2023-02-09T19:37:23.814Z,0.51
2023-02-09T19:40:00.822Z,0.38
2023-02-09T19:42:28.393Z,0.36
2023-02-09T19:44:56.538Z,0.34
2023-02-09T19:47:28.581Z,0.43
2023-02-09T19:50:00.347Z,0.42
2023-02-09T19:52:31.577Z,0.17
2023-02-09T19:54:59.238Z,-0.05
2023-02-09T19:57:27.139Z,-0.21
2023-02-09T19:59:56.380Z,-0.43
2023-02-09T20:02:23.948Z,-0.29
2023-02-09T20:04:51.595Z,-0.29
2023-02-09T20:07:19.332Z,-0.26
2023-02-09T20:09:46.898Z,-0.12
2023-02-09T20:12:16.588Z,-0.14
2023-02-09T20:14:44.087Z,-0.15
2023-02-09T20:17:11.675Z,-0.12
2023-02-09T20:19:39.894Z,-0.10
2023-02-09T20:22:07.385Z,-0.20
2023-02-09T20:24:36.272Z,-0.29
2023-02-09T20:27:04.905Z,-0.54
2023-02-09T20:29:32.457Z,-0.56
2023-02-09T20:32:02.618Z,-0.70
2023-02-09T20:34:30.775Z,-0.95
2023-02-09T20:36:58.276Z,-1.17
2023-02-09T20:39:25.761Z,-1.33
2023-02-09T20:42:17.992Z,-1.36
2023-02-09T20:45:04.262Z,-1.32
2023-02-09T20:47:32.385Z,-1.38
2023-02-09T20:50:01.142Z,-1.28
2023-02-09T20:52:29.545Z,-1.33
2023-02-09T20:54:57.484Z,-1.50
2023-02-09T20:57:31.657Z,-1.58
2023-02-09T21:00:00.939Z,-1.68
2023-02-09T21:02:29.685Z,-1.79
2023-02-09T21:04:58.566Z,-1.85
2023-02-09T21:07:26.398Z,-1.85
2023-02-09T21:09:58.123Z,-1.89
2023-02-09T21:12:26.471Z,-1.90
2023-02-09T21:14:54.220Z,-1.77
2023-02-09T21:17:23.536Z,-1.59
2023-02-09T21:19:51.177Z,-1.65
2023-02-09T21:22:26.010Z,-1.66
2023-02-09T21:24:53.567Z,-1.78
2023-02-09T21:27:21.184Z,-1.90
2023-02-09T21:29:48.803Z,-1.94
2023-02-09T21:32:17.469Z,-1.85
2023-02-09T21:35:10.403Z,-1.78
2023-02-09T21:37:39.245Z,-1.73
2023-02-09T21:40:07.785Z,-1.85
2023-02-09T21:42:38.498Z,-1.84
2023-02-09T21:45:07.995Z,-2.02
2023-02-09T21:47:38.849Z,-2.03
2023-02-09T21:50:10.864Z,-2.04
2023-02-09T21:52:38.789Z,-1.88
2023-02-09T21:55:08.324Z,-1.71
2023-02-09T21:57:38.789Z,-1.68
2023-02-09T22:00:09.187Z,-1.75
2023-02-09T22:02:37.016Z,-1.82
2023-02-09T22:05:05.519Z,-1.77
2023-02-09T22:07:36.314Z,-1.82
2023-02-09T22:10:05.345Z,-1.67
2023-02-09T22:12:34.255Z,-1.69
2023-02-09T22:15:01.757Z,-1.71
2023-02-09T22:17:29.230Z,-1.69
2023-02-09T22:19:56.747Z,-1.57
2023-02-09T22:22:24.259Z,-1.58
2023-02-09T22:24:51.765Z,-1.58
2023-02-09T22:27:20.634Z,-1.74
2023-02-09T22:29:48.159Z,-1.89
2023-02-09T22:32:15.584Z,-1.94
2023-02-09T22:34:42.984Z,-1.91
2023-02-09T22:37:10.486Z,-2.01
2023-02-09T22:39:37.982Z,-1.89
2023-02-09T22:42:05.913Z,-2.07
2023-02-09T22:44:33.491Z,-2.19
2023-02-09T22:47:00.974Z,-2.32
2023-02-09T22:49:28.555Z,-2.29
2023-02-09T22:51:57.055Z,-2.31
2023-02-09T22:54:24.658Z,-2.32
2023-02-09T22:56:52.174Z,-2.25
2023-02-09T22:59:19.783Z,-2.22
2023-02-09T23:01:48.140Z,-2.32
2023-02-09T23:04:15.678Z,-2.15
2023-02-09T23:06:43.231Z,-2.24
2023-02-09T23:09:13.375Z,-2.29
2023-02-09T23:11:41.403Z,-2.34
2023-02-09T23:14:11.248Z,-2.27
2023-02-09T23:16:42.138Z,-2.31
2023-02-09T23:19:13.370Z,-2.40
2023-02-09T23:21:48.980Z,-2.49
2023-02-09T23:24:24.407Z,-2.40
2023-02-09T23:26:53.080Z,-2.41
2023-02-09T23:29:21.370Z,-2.46
2023-02-09T23:31:49.282Z,-2.46
2023-02-09T23:34:21.170Z,-2.56
2023-02-09T23:36:49.424Z,-2.56
2023-02-09T23:39:23.116Z,-2.44
2023-02-09T23:41:50.703Z,-2.43
2023-02-09T23:44:18.290Z,-2.47
2023-02-09T23:46:48.428Z,-2.54
2023-02-09T23:49:15.895Z,-2.59
2023-02-09T23:51:46.631Z,-2.56
2023-02-09T23:54:14.574Z,-2.54
2023-02-09T23:56:42.207Z,-2.63
2023-02-09T23:59:14.364Z,-2.54
